createdAt,value
2015-10-31T00:00:01.400Z,59.88
2015-10-31T00:00:13.728Z,59.31
2015-10-31T00:00:26.056Z,59.41
2015-10-31T00:00:38.403Z,59.5
2015-10-31T00:00:50.762Z,59.78
2015-10-31T00:01:03.090Z,59.69
2015-10-31T00:01:15.403Z,59.41
2015-10-31T00:01:27.746Z,59.5
2015-10-31T00:01:40.093Z,59.41
2015-10-31T00:01:52.453Z,59.22
2015-10-31T00:02:04.828Z,59.12
2015-10-31T00:02:17.203Z,59.12
2015-10-31T00:02:29.546Z,59.22
2015-10-31T00:02:41.877Z,59.5
2015-10-31T00:02:54.221Z,59.5
2015-10-31T00:03:06.549Z,59.31
2015-10-31T00:03:18.909Z,59.41
2015-10-31T00:03:31.237Z,59.31
2015-10-31T00:03:43.567Z,59.41
2015-10-31T00:03:55.895Z,59.41
2015-10-31T00:04:08.239Z,59.5
2015-10-31T00:04:20.598Z,59.41
2015-10-31T00:04:32.958Z,59.41
2015-10-31T00:04:45.320Z,59.15
2015-10-31T00:04:57.664Z,59.22
2015-10-31T00:05:09.992Z,59.41
2015-10-31T00:05:22.320Z,59.03
2015-10-31T00:05:34.648Z,59.12
2015-10-31T00:05:46.995Z,59.12
2015-10-31T00:05:59.339Z,59.12
2015-10-31T00:06:11.667Z,59.12
2015-10-31T00:06:23.995Z,59.5
2015-10-31T00:06:36.339Z,59.22
2015-10-31T00:06:48.684Z,59.22
2015-10-31T00:07:01.044Z,59.12
2015-10-31T00:07:13.403Z,59.22
2015-10-31T00:07:25.731Z,59.31
2015-10-31T00:07:38.059Z,59.41
2015-10-31T00:07:50.407Z,59.41
2015-10-31T00:08:02.735Z,59.41
2015-10-31T00:08:15.063Z,59.41
2015-10-31T00:08:27.407Z,59.12
2015-10-31T00:08:39.751Z,59.22
2015-10-31T00:08:52.097Z,59.31
2015-10-31T00:09:04.456Z,59.12
2015-10-31T00:09:16.800Z,59.12
2015-10-31T00:09:29.128Z,59.12
2015-10-31T00:09:41.456Z,59.5
2015-10-31T00:09:53.787Z,59.15
2015-10-31T00:10:06.115Z,59.22
2015-10-31T00:10:18.459Z,59.5
2015-10-31T00:10:30.818Z,59.41
2015-10-31T00:10:43.178Z,59.5
2015-10-31T00:10:55.523Z,59.69
2015-10-31T00:11:07.883Z,59.59
2015-10-31T00:11:20.211Z,59.5
2015-10-31T00:11:32.555Z,59.59
2015-10-31T00:11:44.883Z,59.69
2015-10-31T00:11:57.199Z,59.78
2015-10-31T00:12:09.527Z,59.59
2015-10-31T00:12:21.856Z,59.59
2015-10-31T00:12:34.199Z,59.59
2015-10-31T00:12:46.545Z,59.59
2015-10-31T00:12:58.873Z,59.59
2015-10-31T00:13:11.233Z,59.59
2015-10-31T00:13:23.592Z,59.41
2015-10-31T00:13:35.951Z,59.41
2015-10-31T00:13:48.282Z,59.5
2015-10-31T00:14:00.611Z,59.69
2015-10-31T00:14:12.939Z,60.06
2015-10-31T00:14:25.267Z,59.78
2015-10-31T00:14:37.611Z,60.06
2015-10-31T00:14:49.956Z,60.16
2015-10-31T00:15:02.300Z,60.06
2015-10-31T00:15:14.644Z,60.16
2015-10-31T00:15:27.003Z,60.16
2015-10-31T00:15:39.363Z,60.35
2015-10-31T00:15:51.725Z,60.16
2015-10-31T00:16:04.069Z,60.64
2015-10-31T00:16:16.397Z,60.44
2015-10-31T00:16:28.725Z,60.73
2015-10-31T00:16:41.053Z,60.73
2015-10-31T00:16:53.384Z,60.83
2015-10-31T00:17:05.712Z,60.64
2015-10-31T00:17:18.040Z,60.92
2015-10-31T00:17:30.384Z,61.21
2015-10-31T00:17:42.728Z,61.11
2015-10-31T00:17:55.075Z,61.21
2015-10-31T00:18:07.418Z,61.21
2015-10-31T00:18:19.778Z,61.02
2015-10-31T00:18:32.106Z,61.02
2015-10-31T00:18:44.403Z,61.02
2015-10-31T00:18:56.733Z,61.21
2015-10-31T00:19:09.061Z,60.92
2015-10-31T00:19:21.405Z,61.02
2015-10-31T00:19:33.749Z,60.92
2015-10-31T00:19:46.092Z,60.83
2015-10-31T00:19:58.454Z,61.11
2015-10-31T00:20:10.844Z,61.02
2015-10-31T00:20:23.204Z,61.3
2015-10-31T00:20:35.532Z,61.21
2015-10-31T00:20:47.864Z,60.83
2015-10-31T00:21:00.192Z,61.02
2015-10-31T00:21:12.520Z,61.02
2015-10-31T00:21:24.864Z,61.3
2015-10-31T00:21:37.192Z,61.11
2015-10-31T00:21:49.522Z,61.11
2015-10-31T00:22:01.866Z,61.21
2015-10-31T00:22:14.225Z,60.92
2015-10-31T00:22:26.585Z,61.02
2015-10-31T00:22:38.991Z,61.21
2015-10-31T00:22:51.306Z,60.92
2015-10-31T00:23:03.650Z,61.02
2015-10-31T00:23:15.978Z,61.11
2015-10-31T00:23:28.291Z,61.21
2015-10-31T00:23:40.619Z,61.02
2015-10-31T00:23:52.950Z,60.83
2015-10-31T00:24:05.278Z,61.11
2015-10-31T00:24:17.622Z,60.92
2015-10-31T00:24:29.966Z,61.11
2015-10-31T00:24:42.341Z,60.83
2015-10-31T00:24:54.702Z,60.83
2015-10-31T00:25:07.061Z,60.64
2015-10-31T00:25:19.390Z,60.73
2015-10-31T00:25:31.718Z,60.64
2015-10-31T00:25:44.046Z,60.54
2015-10-31T00:25:56.377Z,60.73
2015-10-31T00:26:08.721Z,60.83
2015-10-31T00:26:21.049Z,60.83
2015-10-31T00:26:33.377Z,60.54
2015-10-31T00:26:45.721Z,60.54
2015-10-31T00:26:58.082Z,60.16
2015-10-31T00:27:10.488Z,59.97
2015-10-31T00:27:22.816Z,59.41
2015-10-31T00:27:35.145Z,59.59
2015-10-31T00:27:47.476Z,59.69
2015-10-31T00:27:59.804Z,59.69
2015-10-31T00:28:12.132Z,59.12
2015-10-31T00:28:24.476Z,59.41
2015-10-31T00:28:36.804Z,59.12
2015-10-31T00:28:49.151Z,58.84
2015-10-31T00:29:01.479Z,58.74
2015-10-31T00:29:13.838Z,58.45
2015-10-31T00:29:26.197Z,58.17
2015-10-31T00:29:38.557Z,58.07
2015-10-31T00:29:50.935Z,58.36
2015-10-31T00:30:03.263Z,58.17
2015-10-31T00:30:15.591Z,58.36
2015-10-31T00:30:27.779Z,57.79
2015-10-31T00:30:40.107Z,58.07
2015-10-31T00:30:52.437Z,57.79
2015-10-31T00:31:04.781Z,57.89
2015-10-31T00:31:17.124Z,57.79
2015-10-31T00:31:29.312Z,57.89
2015-10-31T00:31:41.640Z,57.51
2015-10-31T00:31:53.971Z,57.6
2015-10-31T00:32:06.299Z,57.64
2015-10-31T00:32:18.627Z,57.13
2015-10-31T00:32:30.971Z,57.23
2015-10-31T00:32:43.299Z,57.44
2015-10-31T00:32:54.942Z,57.32
2015-10-31T00:33:07.301Z,57.35
2015-10-31T00:33:19.661Z,56.94
2015-10-31T00:33:31.989Z,57.35
2015-10-31T00:33:44.317Z,56.87
2015-10-31T00:33:56.665Z,56.78
2015-10-31T00:34:08.305Z,56.49
2015-10-31T00:34:20.649Z,56.12
2015-10-31T00:34:32.977Z,56.02
2015-10-31T00:34:45.321Z,55.83
2015-10-31T00:34:57.651Z,55.83
2015-10-31T00:35:09.995Z,55.64
2015-10-31T00:35:22.370Z,55.64
2015-10-31T00:35:34.713Z,55.55
2015-10-31T00:35:47.090Z,55.17
2015-10-31T00:35:59.434Z,54.88
2015-10-31T00:36:11.622Z,54.88
2015-10-31T00:36:23.965Z,54.88
2015-10-31T00:36:36.122Z,54.69
2015-10-31T00:36:48.454Z,54.5
2015-10-31T00:37:00.782Z,53.94
2015-10-31T00:37:13.126Z,54.5
2015-10-31T00:37:25.454Z,54.32
2015-10-31T00:37:37.094Z,54.5
2015-10-31T00:37:49.456Z,54.41
2015-10-31T00:38:01.815Z,54.32
2015-10-31T00:38:14.159Z,54.5
2015-10-31T00:38:26.487Z,54.22
2015-10-31T00:38:38.815Z,54.32
2015-10-31T00:38:51.131Z,54.13
2015-10-31T00:39:03.459Z,54.32
2015-10-31T00:39:15.803Z,54.32
2015-10-31T00:39:28.146Z,53.84
2015-10-31T00:39:40.474Z,54.13
2015-10-31T00:39:52.821Z,54.41
2015-10-31T00:40:05.165Z,53.94
2015-10-31T00:40:17.540Z,54.13
2015-10-31T00:40:29.899Z,53.94
2015-10-31T00:40:56.418Z,53.56
2015-10-31T00:41:08.746Z,53.75
2015-10-31T00:41:21.074Z,53.75
2015-10-31T00:41:33.402Z,53.46
2015-10-31T00:41:45.715Z,53.37
2015-10-31T00:41:58.061Z,53.75
2015-10-31T00:42:10.420Z,53.56
2015-10-31T00:42:22.764Z,53.46
2015-10-31T00:42:35.092Z,53.46
2015-10-31T00:42:47.454Z,53.46
2015-10-31T00:42:59.814Z,53.37
2015-10-31T00:43:12.157Z,53.56
2015-10-31T00:43:24.485Z,53.56
2015-10-31T00:43:36.814Z,53.37
2015-10-31T00:43:49.144Z,53.56
2015-10-31T00:44:01.472Z,53.65
2015-10-31T00:44:13.816Z,53.37
2015-10-31T00:44:26.144Z,53.46
2015-10-31T00:44:38.487Z,53.37
2015-10-31T00:44:50.834Z,53.46
2015-10-31T00:45:03.194Z,53.27
2015-10-31T00:45:15.553Z,53.75
2015-10-31T00:45:27.897Z,53.65
2015-10-31T00:45:40.225Z,53.65
2015-10-31T00:45:52.572Z,53.27
2015-10-31T00:46:04.900Z,53.08
2015-10-31T00:46:17.228Z,53.18
2015-10-31T00:46:29.556Z,52.8
2015-10-31T00:46:41.884Z,52.61
2015-10-31T00:46:54.231Z,52.7
2015-10-31T00:47:06.575Z,52.61
2015-10-31T00:47:18.934Z,52.51
2015-10-31T00:47:31.278Z,52.42
2015-10-31T00:47:43.637Z,52.33
2015-10-31T00:47:55.998Z,52.23
2015-10-31T00:48:08.327Z,52.14
2015-10-31T00:48:20.655Z,52.42
2015-10-31T00:48:32.983Z,52.14
2015-10-31T00:48:44.623Z,51.85
2015-10-31T00:48:56.939Z,52.04
2015-10-31T00:49:09.283Z,51.66
2015-10-31T00:49:21.626Z,52.14
2015-10-31T00:49:33.251Z,52.04
2015-10-31T00:49:45.611Z,51.85
2015-10-31T00:49:57.989Z,51.76
2015-10-31T00:50:10.348Z,51.66
2015-10-31T00:50:22.676Z,51.57
2015-10-31T00:50:35.004Z,51.76
2015-10-31T00:50:47.333Z,51.37
2015-10-31T00:50:59.678Z,51.37
2015-10-31T00:51:11.991Z,51.57
2015-10-31T00:51:24.319Z,51.47
2015-10-31T00:51:36.663Z,51.28
2015-10-31T00:51:48.994Z,51.47
2015-10-31T00:52:01.338Z,51.85
2015-10-31T00:52:13.697Z,51.47
2015-10-31T00:52:26.056Z,51.66
2015-10-31T00:52:38.431Z,51.47
2015-10-31T00:52:50.762Z,51.37
2015-10-31T00:53:03.091Z,51.66
2015-10-31T00:53:15.419Z,51.57
2015-10-31T00:53:27.747Z,51.76
2015-10-31T00:53:40.075Z,51.76
2015-10-31T00:53:52.390Z,51.57
2015-10-31T00:54:04.750Z,52.14
2015-10-31T00:54:17.078Z,52.23
2015-10-31T00:54:29.422Z,52.51
2015-10-31T00:54:41.765Z,52.42
2015-10-31T00:54:54.111Z,52.33
2015-10-31T00:55:06.455Z,52.33
2015-10-31T00:55:18.080Z,52.51
2015-10-31T00:55:30.408Z,52.51
2015-10-31T00:55:42.721Z,53.18
2015-10-31T00:55:54.349Z,53.37
2015-10-31T00:56:06.677Z,53.75
2015-10-31T00:56:19.005Z,53.56
2015-10-31T00:56:31.333Z,53.65
2015-10-31T00:56:43.677Z,53.75
2015-10-31T00:56:56.007Z,53.56
2015-10-31T00:57:08.366Z,54.41
2015-10-31T00:57:20.741Z,54.5
2015-10-31T00:57:32.944Z,54.79
2015-10-31T00:57:45.304Z,54.79
2015-10-31T00:57:57.635Z,54.88
2015-10-31T00:58:09.979Z,54.88
2015-10-31T00:58:22.307Z,55.17
2015-10-31T00:58:34.635Z,55.17
2015-10-31T00:58:46.979Z,55.74
2015-10-31T00:58:59.326Z,55.64
2015-10-31T00:59:11.670Z,56.02
2015-10-31T00:59:24.029Z,55.93
2015-10-31T00:59:36.373Z,56.12
2015-10-31T00:59:48.733Z,56.21
2015-10-31T01:00:01.094Z,56.59
2015-10-31T01:00:13.453Z,56.78
2015-10-31T01:00:25.781Z,56.87
2015-10-31T01:00:38.110Z,57.35
2015-10-31T01:00:50.438Z,57.35
2015-10-31T01:01:02.768Z,57.54
2015-10-31T01:01:15.096Z,57.64
2015-10-31T01:01:27.424Z,57.73
2015-10-31T01:01:39.752Z,57.82
2015-10-31T01:01:52.080Z,58.2
2015-10-31T01:02:04.427Z,58.2
2015-10-31T01:02:16.786Z,58.2
2015-10-31T01:02:29.146Z,58.2
2015-10-31T01:02:41.505Z,58.86
2015-10-31T01:02:53.849Z,58.93
2015-10-31T01:03:06.180Z,59.22
2015-10-31T01:03:17.789Z,59.22
2015-10-31T01:03:30.133Z,59.59
2015-10-31T01:03:42.461Z,59.59
2015-10-31T01:03:54.805Z,59.78
2015-10-31T01:04:07.136Z,59.69
2015-10-31T01:04:19.480Z,59.5
2015-10-31T01:04:31.824Z,59.59
2015-10-31T01:04:43.449Z,59.88
2015-10-31T01:04:55.824Z,59.88
2015-10-31T01:05:08.155Z,60.16
2015-10-31T01:05:20.483Z,60.35
2015-10-31T01:05:32.842Z,60.73
2015-10-31T01:05:45.217Z,60.64
2015-10-31T01:05:57.561Z,60.44
2015-10-31T01:06:09.891Z,60.64
2015-10-31T01:06:22.251Z,61.11
2015-10-31T01:06:34.610Z,60.54
2015-10-31T01:06:46.969Z,60.83
2015-10-31T01:06:59.313Z,61.02
2015-10-31T01:07:11.644Z,60.83
2015-10-31T01:07:23.957Z,61.02
2015-10-31T01:07:36.285Z,61.3
2015-10-31T01:07:48.613Z,61.21
2015-10-31T01:08:00.941Z,61.02
2015-10-31T01:08:13.288Z,61.49
2015-10-31T01:08:25.616Z,61.11
2015-10-31T01:08:37.257Z,61.02
2015-10-31T01:08:49.600Z,60.92
2015-10-31T01:09:01.960Z,61.68
2015-10-31T01:09:14.338Z,61.68
2015-10-31T01:09:26.697Z,61.58
2015-10-31T01:09:39.010Z,61.49
2015-10-31T01:09:51.338Z,61.58
2015-10-31T01:10:03.666Z,61.3
2015-10-31T01:10:16.012Z,61.4
2015-10-31T01:10:28.340Z,61.58
2015-10-31T01:10:40.668Z,61.58
2015-10-31T01:10:53.012Z,61.21
2015-10-31T01:11:05.371Z,61.49
2015-10-31T01:11:17.733Z,61.49
2015-10-31T01:11:30.093Z,61.68
2015-10-31T01:11:42.468Z,61.02
2015-10-31T01:11:54.796Z,61.21
2015-10-31T01:12:07.124Z,61.02
2015-10-31T01:12:19.455Z,61.21
2015-10-31T01:12:30.924Z,61.11
2015-10-31T01:12:43.252Z,61.21
2015-10-31T01:12:55.596Z,61.21
2015-10-31T01:13:07.924Z,60.83
2015-10-31T01:13:20.285Z,60.83
2015-10-31T01:13:32.645Z,60.92
2015-10-31T01:13:44.973Z,61.02
2015-10-31T01:13:57.301Z,60.54
2015-10-31T01:14:09.632Z,60.73
2015-10-31T01:14:21.960Z,60.73
2015-10-31T01:14:34.288Z,60.54
2015-10-31T01:14:46.616Z,60.54
2015-10-31T01:14:58.960Z,60.64
2015-10-31T01:15:11.151Z,60.73
2015-10-31T01:15:22.776Z,61.11
2015-10-31T01:15:35.151Z,61.02
2015-10-31T01:15:47.526Z,60.73
2015-10-31T01:15:59.901Z,61.02
2015-10-31T01:16:12.246Z,60.73
2015-10-31T01:16:24.574Z,60.73
2015-10-31T01:16:36.903Z,60.54
2015-10-31T01:16:49.246Z,60.54
2015-10-31T01:17:01.590Z,60.64
2015-10-31T01:17:13.937Z,60.64
2015-10-31T01:17:26.265Z,60.44
2015-10-31T01:17:38.609Z,60.83
2015-10-31T01:17:50.952Z,60.83
2015-10-31T01:18:03.296Z,61.11
2015-10-31T01:18:15.659Z,61.02
2015-10-31T01:18:28.018Z,61.3
2015-10-31T01:18:40.377Z,61.21
2015-10-31T01:18:52.721Z,61.11
2015-10-31T01:19:05.065Z,60.92
2015-10-31T01:19:17.411Z,61.4
2015-10-31T01:19:29.739Z,61.77
2015-10-31T01:19:42.067Z,61.49
2015-10-31T01:19:54.395Z,61.4
2015-10-31T01:20:06.739Z,61.4
2015-10-31T01:20:19.086Z,61.4
2015-10-31T01:20:31.430Z,61.68
2015-10-31T01:20:43.790Z,61.74
2015-10-31T01:20:56.133Z,61.68
2015-10-31T01:21:08.477Z,61.55
2015-10-31T01:21:20.807Z,61.74
2015-10-31T01:21:33.120Z,62.02
2015-10-31T01:21:45.448Z,61.83
2015-10-31T01:21:57.776Z,62.05
2015-10-31T01:22:10.120Z,61.93
2015-10-31T01:22:22.451Z,61.96
2015-10-31T01:22:34.795Z,62.21
2015-10-31T01:22:47.170Z,62.12
2015-10-31T01:23:18.623Z,62.31
2015-10-31T01:23:30.954Z,62.4
2015-10-31T01:23:43.282Z,62.5
2015-10-31T01:23:55.594Z,62.4
2015-10-31T01:24:07.938Z,62.4
2015-10-31T01:24:20.282Z,62.69
2015-10-31T01:24:32.629Z,62.59
2015-10-31T01:24:44.972Z,62.69
2015-10-31T01:24:57.347Z,62.78
2015-10-31T01:25:09.707Z,62.88
2015-10-31T01:25:22.051Z,62.88
2015-10-31T01:25:34.382Z,62.88
2015-10-31T01:25:46.710Z,63.07
2015-10-31T01:25:59.038Z,63.07
2015-10-31T01:26:11.366Z,63.07
2015-10-31T01:26:23.694Z,63.35
2015-10-31T01:26:36.024Z,63.16
2015-10-31T01:26:48.352Z,63.26
2015-10-31T01:27:00.696Z,63.26
2015-10-31T01:27:13.056Z,63.45
2015-10-31T01:27:25.446Z,63.35
2015-10-31T01:27:37.793Z,63.64
2015-10-31T01:27:50.121Z,63.64
2015-10-31T01:28:02.449Z,63.73
2015-10-31T01:28:14.777Z,63.54
2015-10-31T01:28:27.105Z,63.64
2015-10-31T01:28:39.452Z,63.82
2015-10-31T01:28:51.796Z,63.82
2015-10-31T01:29:04.140Z,63.82
2015-10-31T01:29:16.483Z,63.82
2015-10-31T01:29:28.796Z,63.64
2015-10-31T01:29:40.955Z,63.54
2015-10-31T01:29:53.283Z,64.01
2015-10-31T01:30:05.643Z,63.73
2015-10-31T01:30:17.971Z,64.01
2015-10-31T01:30:30.315Z,64.01
2015-10-31T01:30:42.645Z,64.01
2015-10-31T01:30:54.988Z,63.82
2015-10-31T01:31:07.332Z,64.01
2015-10-31T01:31:19.692Z,63.92
2015-10-31T01:31:32.020Z,63.54
2015-10-31T01:31:44.351Z,63.73
2015-10-31T01:31:56.679Z,63.45
2015-10-31T01:32:09.007Z,63.54
2015-10-31T01:32:21.335Z,63.45
2015-10-31T01:32:32.976Z,63.54
2015-10-31T01:32:45.307Z,63.45
2015-10-31T01:32:57.682Z,63.45
2015-10-31T01:33:10.026Z,63.35
2015-10-31T01:33:22.354Z,63.45
2015-10-31T01:33:34.682Z,63.45
2015-10-31T01:33:47.012Z,63.16
2015-10-31T01:33:59.325Z,62.78
2015-10-31T01:34:11.653Z,62.69
2015-10-31T01:34:23.981Z,62.4
2015-10-31T01:34:36.328Z,61.83
2015-10-31T01:34:48.656Z,61.36
2015-10-31T01:35:00.999Z,61.08
2015-10-31T01:35:12.640Z,60.89
2015-10-31T01:35:24.984Z,60.8
2015-10-31T01:35:37.345Z,60.41
2015-10-31T01:35:49.673Z,60.13
2015-10-31T01:36:01.986Z,59.94
2015-10-31T01:36:14.314Z,59.84
2015-10-31T01:36:26.626Z,59.38
2015-10-31T01:36:38.959Z,59.56
2015-10-31T01:36:51.287Z,59.75
2015-10-31T01:37:03.615Z,59.69
2015-10-31T01:37:15.943Z,59.5
2015-10-31T01:37:28.287Z,59.47
2015-10-31T01:37:40.476Z,59.31
2015-10-31T01:37:52.851Z,58.84
2015-10-31T01:38:05.195Z,58.9
2015-10-31T01:38:16.820Z,58.55
2015-10-31T01:38:29.132Z,58.36
2015-10-31T01:38:41.464Z,58.36
2015-10-31T01:38:53.792Z,57.79
2015-10-31T01:39:06.104Z,57.89
2015-10-31T01:39:18.448Z,57.98
2015-10-31T01:39:30.776Z,57.7
2015-10-31T01:39:43.123Z,57.79
2015-10-31T01:39:55.467Z,57.13
2015-10-31T01:40:07.810Z,56.94
2015-10-31T01:40:20.138Z,56.94
2015-10-31T01:40:32.482Z,56.56
2015-10-31T01:40:44.812Z,56.27
2015-10-31T01:40:57.140Z,56.75
2015-10-31T01:41:09.469Z,56.27
2015-10-31T01:41:21.797Z,56.09
2015-10-31T01:41:34.140Z,55.99
2015-10-31T01:41:46.472Z,56.46
2015-10-31T01:41:58.815Z,56.09
2015-10-31T01:42:11.159Z,55.8
2015-10-31T01:42:23.518Z,55.71
2015-10-31T01:42:35.878Z,55.62
2015-10-31T01:42:48.225Z,55.43
2015-10-31T01:43:00.553Z,55.52
2015-10-31T01:43:12.881Z,55.33
2015-10-31T01:43:25.193Z,55.43
2015-10-31T01:43:37.521Z,55.9
2015-10-31T01:43:49.852Z,55.9
2015-10-31T01:44:01.492Z,55.99
2015-10-31T01:44:13.836Z,56.09
2015-10-31T01:44:26.180Z,56.18
2015-10-31T01:44:38.383Z,55.99
2015-10-31T01:44:50.589Z,56.09
2015-10-31T01:45:02.933Z,56.56
2015-10-31T01:45:15.261Z,56.56
2015-10-31T01:45:27.589Z,56.27
2015-10-31T01:45:39.917Z,56.27
2015-10-31T01:45:52.264Z,56.18
2015-10-31T01:46:04.592Z,56.75
2015-10-31T01:46:16.936Z,56.85
2015-10-31T01:46:29.248Z,56.85
2015-10-31T01:46:41.592Z,57.23
2015-10-31T01:46:53.939Z,57.13
2015-10-31T01:47:06.298Z,57.23
2015-10-31T01:47:18.657Z,57.23
2015-10-31T01:47:31.017Z,57.23
2015-10-31T01:47:43.364Z,57.51
2015-10-31T01:47:55.692Z,57.42
2015-10-31T01:48:08.020Z,57.51
2015-10-31T01:48:20.348Z,57.51
2015-10-31T01:48:32.692Z,57.6
2015-10-31T01:48:45.037Z,57.42
2015-10-31T01:48:57.366Z,57.51
2015-10-31T01:49:09.694Z,57.79
2015-10-31T01:49:22.037Z,57.6
2015-10-31T01:49:34.381Z,57.32
2015-10-31T01:49:46.743Z,57.7
2015-10-31T01:49:59.118Z,57.79
2015-10-31T01:50:11.446Z,57.51
2015-10-31T01:50:23.774Z,57.23
2015-10-31T01:50:36.102Z,57.04
2015-10-31T01:50:48.481Z,56.75
2015-10-31T01:51:00.825Z,56.27
2015-10-31T01:51:13.153Z,55.9
2015-10-31T01:51:25.481Z,55.71
2015-10-31T01:51:37.840Z,55.52
2015-10-31T01:51:50.170Z,55.24
2015-10-31T01:52:02.514Z,54.95
2015-10-31T01:52:14.842Z,54.86
2015-10-31T01:52:26.467Z,54.86
2015-10-31T01:52:38.811Z,54.57
2015-10-31T01:52:51.158Z,54.86
2015-10-31T01:53:03.361Z,54.57
2015-10-31T01:53:15.736Z,54.57
2015-10-31T01:53:28.080Z,54.76
2015-10-31T01:53:40.408Z,54.67
2015-10-31T01:53:52.739Z,54.57
2015-10-31T01:54:05.067Z,54.76
2015-10-31T01:54:17.395Z,54.47
2015-10-31T01:54:29.005Z,54.47
2015-10-31T01:54:41.333Z,54.28
2015-10-31T01:54:53.663Z,54.38
2015-10-31T01:55:06.007Z,54.28
2015-10-31T01:55:18.366Z,54.47
2015-10-31T01:55:30.725Z,53.81
2015-10-31T01:55:43.102Z,54
2015-10-31T01:55:55.430Z,53.91
2015-10-31T01:56:07.774Z,53.81
2015-10-31T01:56:20.118Z,53.72
2015-10-31T01:56:32.446Z,54.1
2015-10-31T01:56:44.777Z,54.19
2015-10-31T01:56:57.105Z,54.38
2015-10-31T01:57:09.433Z,54.38
2015-10-31T01:57:21.793Z,54.28
2015-10-31T01:57:34.121Z,54.86
2015-10-31T01:57:46.483Z,54.57
2015-10-31T01:57:58.858Z,54.67
2015-10-31T01:58:11.218Z,54.67
2015-10-31T01:58:23.546Z,54.57
2015-10-31T01:58:35.874Z,55.05
2015-10-31T01:58:48.205Z,54.86
2015-10-31T01:59:00.518Z,54.76
2015-10-31T01:59:12.846Z,54.95
2015-10-31T01:59:25.189Z,55.14
2015-10-31T01:59:37.518Z,55.14
2015-10-31T01:59:49.849Z,55.24
2015-10-31T02:00:02.192Z,55.43
2015-10-31T02:00:14.536Z,55.52
2015-10-31T02:00:26.911Z,55.43
2015-10-31T02:00:39.239Z,55.71
2015-10-31T02:00:51.585Z,55.9
2015-10-31T02:01:03.194Z,55.9
2015-10-31T02:01:15.538Z,56.27
2015-10-31T02:01:27.882Z,56.37
2015-10-31T02:01:40.226Z,56.18
2015-10-31T02:01:52.571Z,56.66
2015-10-31T02:02:04.931Z,56.85
2015-10-31T02:02:17.290Z,56.85
2015-10-31T02:02:29.650Z,56.75
2015-10-31T02:02:41.978Z,56.37
2015-10-31T02:02:54.309Z,56.46
2015-10-31T02:03:06.637Z,56.09
2015-10-31T02:03:18.965Z,56.09
2015-10-31T02:03:31.293Z,55.9
2015-10-31T02:03:43.609Z,55.99
2015-10-31T02:03:55.937Z,55.71
2015-10-31T02:04:08.281Z,55.9
2015-10-31T02:04:20.609Z,55.71
2015-10-31T02:04:32.968Z,55.8
2015-10-31T02:04:45.314Z,55.71
2015-10-31T02:04:57.642Z,55.8
2015-10-31T02:05:09.954Z,55.9
2015-10-31T02:05:22.283Z,56.27
2015-10-31T02:05:34.595Z,56.18
2015-10-31T02:05:46.911Z,56.85
2015-10-31T02:05:59.239Z,57.23
2015-10-31T02:06:11.567Z,57.42
2015-10-31T02:06:23.911Z,57.98
2015-10-31T02:06:36.270Z,58.26
2015-10-31T02:06:48.617Z,58.07
2015-10-31T02:07:00.226Z,58.93
2015-10-31T02:07:12.570Z,59.5
2015-10-31T02:07:24.195Z,59.59
2015-10-31T02:07:36.523Z,59.59
2015-10-31T02:07:48.870Z,59.97
2015-10-31T02:08:01.198Z,60.06
2015-10-31T02:08:13.557Z,60.54
2015-10-31T02:08:25.885Z,60.44
2015-10-31T02:08:38.213Z,60.73
2015-10-31T02:08:50.560Z,60.35
2015-10-31T02:09:02.873Z,59.97
2015-10-31T02:09:15.216Z,59.69
2015-10-31T02:09:27.560Z,59.03
2015-10-31T02:09:39.904Z,58.17
2015-10-31T02:09:52.266Z,58.07
2015-10-31T02:10:04.626Z,57.23
2015-10-31T02:10:17.001Z,56.46
2015-10-31T02:10:29.329Z,55.8
2015-10-31T02:10:41.657Z,55.52
2015-10-31T02:10:54.003Z,55.33
2015-10-31T02:11:06.331Z,55.14
2015-10-31T02:11:18.659Z,54.57
2015-10-31T02:11:31.003Z,54.19
2015-10-31T02:11:43.333Z,54.28
2015-10-31T02:11:55.708Z,54.1
2015-10-31T02:12:08.052Z,53.72
2015-10-31T02:12:20.380Z,53.91
2015-10-31T02:12:32.708Z,53.81
2015-10-31T02:12:45.039Z,54.38
2015-10-31T02:12:56.648Z,53.81
2015-10-31T02:13:08.976Z,53.72
2015-10-31T02:13:21.305Z,53.72
2015-10-31T02:13:33.476Z,53.63
2015-10-31T02:13:45.808Z,53.91
2015-10-31T02:13:58.151Z,54.38
2015-10-31T02:14:10.526Z,54.28
2015-10-31T02:14:22.745Z,54.67
2015-10-31T02:14:35.104Z,54.67
2015-10-31T02:14:47.436Z,54.57
2015-10-31T02:14:59.779Z,55.05
2015-10-31T02:15:12.092Z,54.67
2015-10-31T02:15:24.420Z,54.67
2015-10-31T02:15:36.748Z,54.57
2015-10-31T02:15:49.078Z,54.76
2015-10-31T02:16:01.422Z,54.47
2015-10-31T02:16:13.766Z,54.67
2015-10-31T02:16:26.109Z,54.76
2015-10-31T02:16:38.469Z,54.76
2015-10-31T02:16:50.793Z,54.76
2015-10-31T02:17:03.121Z,54.67
2015-10-31T02:17:15.449Z,54.76
2015-10-31T02:17:27.777Z,54.67
2015-10-31T02:17:40.105Z,54.57
2015-10-31T02:17:52.428Z,54.76
2015-10-31T02:18:04.756Z,54.67
2015-10-31T02:18:17.084Z,55.05
2015-10-31T02:18:29.443Z,54.86
2015-10-31T02:18:41.803Z,54.86
2015-10-31T02:18:54.140Z,55.24
2015-10-31T02:19:06.500Z,55.24
2015-10-31T02:19:18.843Z,55.52
2015-10-31T02:19:31.172Z,55.71
2015-10-31T02:19:43.494Z,55.9
2015-10-31T02:19:55.822Z,56.09
2015-10-31T02:20:08.150Z,56.66
2015-10-31T02:20:20.478Z,56.56
2015-10-31T02:20:32.806Z,56.27
2015-10-31T02:20:45.113Z,56.09
2015-10-31T02:20:57.456Z,55.9
2015-10-31T02:21:09.800Z,55.71
2015-10-31T02:21:22.160Z,55.24
2015-10-31T02:21:34.503Z,54.67
2015-10-31T02:21:46.828Z,54.67
2015-10-31T02:21:59.157Z,54.57
2015-10-31T02:22:11.485Z,54.28
2015-10-31T02:22:23.813Z,54.38
2015-10-31T02:22:36.141Z,53.91
2015-10-31T02:22:48.485Z,54
2015-10-31T02:23:00.828Z,53.91
2015-10-31T02:23:13.188Z,53.72
2015-10-31T02:23:25.532Z,53.34
2015-10-31T02:23:37.860Z,53.44
2015-10-31T02:23:50.187Z,53.25
2015-10-31T02:24:02.515Z,53.72
2015-10-31T02:24:14.843Z,53.44
2015-10-31T02:24:27.171Z,53.25
2015-10-31T02:24:39.499Z,53.06
2015-10-31T02:24:51.842Z,53.15
2015-10-31T02:25:04.186Z,52.58
2015-10-31T02:25:16.545Z,52.48
2015-10-31T02:25:28.905Z,52.48
2015-10-31T02:25:41.264Z,52.29
2015-10-31T02:25:53.655Z,52.2
2015-10-31T02:26:05.983Z,52.2
2015-10-31T02:26:18.311Z,51.45
2015-10-31T02:26:30.655Z,51.64
2015-10-31T02:26:42.983Z,51.82
2015-10-31T02:26:55.311Z,51.82
2015-10-31T02:27:07.639Z,51.82
2015-10-31T02:27:19.967Z,51.64
2015-10-31T02:27:32.311Z,51.64
2015-10-31T02:27:44.657Z,51.54
2015-10-31T02:27:57.016Z,51.35
2015-10-31T02:28:09.391Z,51.54
2015-10-31T02:28:21.750Z,51.82
2015-10-31T02:28:34.125Z,51.26
2015-10-31T02:28:46.471Z,51.45
2015-10-31T02:28:58.784Z,51.16
2015-10-31T02:29:11.112Z,51.45
2015-10-31T02:29:23.455Z,51.16
2015-10-31T02:29:35.815Z,50.88
2015-10-31T02:29:48.144Z,51.16
2015-10-31T02:30:00.472Z,50.97
2015-10-31T02:30:12.800Z,50.97
2015-10-31T02:30:25.160Z,51.07
2015-10-31T02:30:37.519Z,50.97
2015-10-31T02:30:49.880Z,50.97
2015-10-31T02:31:02.208Z,51.07
2015-10-31T02:31:14.537Z,51.07
2015-10-31T02:31:26.865Z,51.16
2015-10-31T02:31:39.193Z,50.69
2015-10-31T02:31:51.539Z,50.59
2015-10-31T02:32:03.867Z,51.18
2015-10-31T02:32:16.210Z,50.88
2015-10-31T02:32:28.554Z,51.16
2015-10-31T02:32:40.914Z,50.59
2015-10-31T02:32:53.292Z,50.4
2015-10-31T02:33:05.651Z,50.62
2015-10-31T02:33:17.870Z,50.59
2015-10-31T02:33:30.198Z,50.71
2015-10-31T02:33:42.526Z,50.71
2015-10-31T02:33:54.856Z,50.34
2015-10-31T02:34:07.184Z,50.52
2015-10-31T02:34:19.497Z,50.52
2015-10-31T02:34:31.840Z,50.52
2015-10-31T02:34:44.171Z,50.52
2015-10-31T02:34:56.514Z,50.71
2015-10-31T02:35:08.858Z,50.24
2015-10-31T02:35:20.530Z,50.15
2015-10-31T02:35:32.889Z,50.15
2015-10-31T02:35:45.252Z,50.15
2015-10-31T02:35:57.580Z,50.24
2015-10-31T02:36:09.908Z,50.24
2015-10-31T02:36:22.252Z,50.15
2015-10-31T02:36:34.580Z,49.57
2015-10-31T02:36:46.910Z,49.76
2015-10-31T02:36:59.254Z,49.95
2015-10-31T02:37:11.582Z,49.95
2015-10-31T02:37:23.926Z,49.95
2015-10-31T02:37:36.269Z,49.57
2015-10-31T02:37:48.631Z,49.19
2015-10-31T02:38:00.974Z,49.01
2015-10-31T02:38:13.318Z,48.82
2015-10-31T02:38:25.646Z,48.82
2015-10-31T02:38:37.974Z,48.72
2015-10-31T02:38:50.321Z,48.72
2015-10-31T02:39:02.649Z,48.25
2015-10-31T02:39:14.977Z,48.25
2015-10-31T02:39:27.321Z,48.15
2015-10-31T02:39:39.665Z,48.06